Time;durP1;ratioP1;P1;durP2;ratioP2;P2;SDS_P1;SDS_P2;PMS_P1;PMS_P2;Temp;Humidity;BMP_temperature;BMP_pressure;BME280_temperature;BME280_humidity;BME280_pressure;Samples;Min_cycle;Max_cycle;Signal;HPM_P1;HPM_P2
2022/03/22 00:02:09;;;;;;;17.80;13.88;;;14.20;72.20;;;;;;5010137;28;20034;-80
2022/03/22 00:04:35;;;;;;;17.15;14.40;;;14.20;72.20;;;;;;5009813;28;20088;-79
2022/03/22 00:07:02;;;;;;;17.73;13.50;;;14.20;72.20;;;;;;5026409;28;20024;-79
2022/03/22 00:09:28;;;;;;;16.35;13.15;;;14.20;72.20;;;;;;4994987;28;20029;-79
2022/03/22 00:11:54;;;;;;;18.00;13.82;;;14.20;72.30;;;;;;4981819;28;20048;-79
2022/03/22 00:14:20;;;;;;;16.35;13.35;;;14.10;72.30;;;;;;4992983;28;20017;-79
2022/03/22 00:16:46;;;;;;;17.15;13.68;;;14.10;72.20;;;;;;5013345;28;20460;-79
2022/03/22 00:19:12;;;;;;;17.33;15.10;;;14.00;72.20;;;;;;5014226;28;20033;-80
2022/03/22 00:21:37;;;;;;;16.45;13.57;;;14.00;72.30;;;;;;4993814;28;20509;-79
2022/03/22 00:24:04;;;;;;;17.65;13.90;;;14.00;72.30;;;;;;5013773;28;20101;-79
2022/03/22 00:26:30;;;;;;;16.67;13.45;;;14.00;72.30;;;;;;5025995;28;20036;-80
2022/03/22 00:28:57;;;;;;;16.75;13.77;;;14.00;72.30;;;;;;4996650;28;20037;-79
2022/03/22 00:31:23;;;;;;;18.73;13.65;;;13.90;72.30;;;;;;4998725;28;20088;-79
2022/03/22 00:33:49;;;;;;;16.60;13.35;;;13.90;72.30;;;;;;4980752;28;20073;-79
2022/03/22 00:36:14;;;;;;;16.58;13.20;;;13.90;72.30;;;;;;4993756;28;20029;-79
2022/03/22 00:38:41;;;;;;;18.15;13.40;;;13.80;72.30;;;;;;5024297;28;20037;-79
2022/03/22 00:41:07;;;;;;;18.65;14.48;;;13.80;72.20;;;;;;4982359;28;20032;-79
2022/03/22 00:43:36;;;;;;;16.95;13.85;;;13.80;72.30;;;;;;5004557;28;20054;-79
2022/03/22 00:46:02;;;;;;;17.00;13.70;;;13.80;72.30;;;;;;5023336;28;20028;-80
2022/03/22 00:48:28;;;;;;;17.98;13.90;;;13.70;72.20;;;;;;4999713;28;20041;-80
2022/03/22 00:50:54;;;;;;;17.38;13.75;;;13.70;72.20;;;;;;4977275;28;20033;-80
2022/03/22 00:53:20;;;;;;;17.40;13.82;;;13.70;72.30;;;;;;5009738;28;20056;-80
2022/03/22 00:55:47;;;;;;;16.55;13.35;;;13.70;72.30;;;;;;4985946;28;20116;-79
2022/03/22 00:58:13;;;;;;;17.52;13.98;;;13.60;72.90;;;;;;4996608;28;20033;-79
2022/03/22 01:00:40;;;;;;;16.73;13.07;;;13.60;72.30;;;;;;5027901;28;20046;-80
2022/03/22 01:03:08;;;;;;;16.42;13.52;;;13.60;72.30;;;;;;4986161;28;20025;-80
2022/03/22 01:05:35;;;;;;;17.23;13.18;;;13.60;72.40;;;;;;4999385;28;20410;-79
2022/03/22 01:08:10;;;;;;;15.73;13.20;;;13.50;72.30;;;;;;5029044;28;20018;-79
2022/03/22 01:10:42;;;;;;;16.38;13.60;;;13.50;72.30;;;;;;5012507;28;20144;-79
2022/03/22 01:13:08;;;;;;;17.30;13.85;;;13.50;72.30;;;;;;5030371;28;20105;-80
2022/03/22 01:15:36;;;;;;;17.25;13.65;;;13.40;72.30;;;;;;5005927;28;20486;-80
2022/03/22 01:18:07;;;;;;;17.38;13.07;;;13.40;72.30;;;;;;4996391;28;20129;-80
2022/03/22 01:20:46;;;;;;;16.40;12.85;;;13.40;72.30;;;;;;5012166;28;20025;-79
2022/03/22 01:23:13;;;;;;;16.60;13.43;;;13.40;72.40;;;;;;5011858;28;20055;-80
2022/03/22 01:25:41;;;;;;;15.65;13.68;;;13.30;72.30;;;;;;4964586;28;20032;-79
2022/03/22 01:28:09;;;;;;;17.35;13.80;;;13.40;72.40;;;;;;4990754;28;20078;-80
2022/03/22 01:30:36;;;;;;;18.02;13.60;;;13.30;72.40;;;;;;5012789;28;20116;-80
2022/03/22 01:33:02;;;;;;;15.82;13.25;;;13.30;72.40;;;;;;5004426;28;20035;-79
2022/03/22 01:35:28;;;;;;;16.10;13.25;;;13.20;72.30;;;;;;4984288;28;20060;-80
2022/03/22 01:37:55;;;;;;;16.88;13.88;;;13.20;72.40;;;;;;5008769;28;20025;-79
2022/03/22 01:40:25;;;;;;;17.55;13.60;;;13.20;72.40;;;;;;4997337;28;20194;-79
2022/03/22 01:42:53;;;;;;;17.20;13.88;;;13.20;72.50;;;;;;5025397;28;20046;-79
2022/03/22 01:45:19;;;;;;;16.33;13.75;;;13.20;72.60;;;;;;4997998;28;20096;-80
2022/03/22 01:47:46;;;;;;;16.98;13.55;;;13.10;72.50;;;;;;5007259;28;20026;-79
2022/03/22 01:50:17;;;;;;;16.15;12.77;;;13.10;72.50;;;;;;4996198;28;20455;-79
2022/03/22 01:52:43;;;;;;;17.27;14.48;;;13.10;72.50;;;;;;4992877;28;20024;-80
2022/03/22 01:55:12;;;;;;;16.55;13.60;;;13.10;72.50;;;;;;4998207;28;20056;-80
2022/03/22 01:57:37;;;;;;;16.13;13.30;;;13.10;72.60;;;;;;5028813;28;20030;-79
2022/03/22 02:00:12;;;;;;;15.32;12.68;;;13.00;72.50;;;;;;5026154;28;20033;-79
2022/03/22 02:08:16;;;;;;;17.48;13.82;;;13.00;72.60;;;;;;5033780;28;20021;-81
2022/03/22 02:10:42;;;;;;;16.52;12.73;;;12.90;72.60;;;;;;5004658;28;20025;-80
2022/03/22 02:13:08;;;;;;;15.90;13.25;;;12.90;72.60;;;;;;4990251;28;20043;-80
2022/03/22 02:15:34;;;;;;;17.23;13.35;;;12.90;72.60;;;;;;5008260;28;20116;-80
2022/03/22 02:18:00;;;;;;;14.90;13.18;;;12.80;72.60;;;;;;5004390;28;20025;-80
2022/03/22 02:20:27;;;;;;;15.38;12.48;;;12.80;72.60;;;;;;5024539;28;20037;-79
2022/03/22 02:22:56;;;;;;;15.70;12.80;;;12.80;72.70;;;;;;4991214;28;20087;-80
2022/03/22 02:25:22;;;;;;;16.65;12.75;;;12.80;72.70;;;;;;5014596;28;20026;-80
2022/03/22 02:27:52;;;;;;;15.07;12.18;;;12.80;72.70;;;;;;4999138;28;20058;-79
2022/03/22 02:30:18;;;;;;;14.45;12.25;;;12.70;72.70;;;;;;5018190;28;20037;-80
2022/03/22 02:32:51;;;;;;;16.60;12.88;;;12.70;72.70;;;;;;5010461;28;20033;-79
2022/03/22 02:35:18;;;;;;;15.35;12.65;;;12.70;72.80;;;;;;5007714;28;20041;-79
2022/03/22 02:37:46;;;;;;;16.77;12.90;;;12.70;72.80;;;;;;5013488;28;20036;-80
2022/03/22 02:40:13;;;;;;;15.30;12.30;;;12.70;72.80;;;;;;4977318;28;20037;-79
2022/03/22 02:42:42;;;;;;;15.38;12.65;;;12.60;72.80;;;;;;5006756;28;20057;-80
2022/03/22 02:45:09;;;;;;;15.40;12.38;;;12.60;72.80;;;;;;5013792;28;20427;-79
2022/03/22 02:47:35;;;;;;;15.55;12.85;;;12.60;72.80;;;;;;5014216;28;20041;-79
2022/03/22 02:50:01;;;;;;;16.85;13.27;;;12.60;72.80;;;;;;5015878;28;20389;-80
2022/03/22 02:52:27;;;;;;;15.50;12.65;;;12.50;72.80;;;;;;4999128;28;20080;-79
2022/03/22 02:54:53;;;;;;;15.43;12.27;;;12.50;72.80;;;;;;4959008;28;20034;-79
2022/03/22 02:57:19;;;;;;;15.15;12.07;;;12.50;72.80;;;;;;4981472;28;20034;-80
2022/03/22 02:59:45;;;;;;;14.95;11.90;;;12.40;72.80;;;;;;5010018;28;20075;-80
2022/03/22 03:02:11;;;;;;;16.92;12.18;;;12.40;72.90;;;;;;5009871;28;20079;-80
2022/03/22 03:04:37;;;;;;;14.73;11.95;;;12.50;72.90;;;;;;4998806;28;20026;-78
2022/03/22 03:07:03;;;;;;;15.13;12.38;;;12.40;72.90;;;;;;4998523;28;20021;-80
2022/03/22 03:09:29;;;;;;;14.18;11.90;;;12.40;72.90;;;;;;4996300;28;20038;-80
2022/03/22 03:11:55;;;;;;;14.32;12.15;;;12.40;72.90;;;;;;5027486;28;20036;-80
2022/03/22 03:14:38;;;;;;;14.57;11.90;;;12.40;73.00;;;;;;4985895;28;20030;-79
2022/03/22 03:17:09;;;;;;;14.77;12.20;;;12.30;72.90;;;;;;4980950;28;20120;-79
2022/03/22 03:19:35;;;;;;;16.27;13.10;;;12.30;72.90;;;;;;4988563;28;20492;-80
2022/03/22 03:22:04;;;;;;;14.82;12.10;;;12.30;73.00;;;;;;5012423;28;20033;-79
2022/03/22 03:24:31;;;;;;;16.50;12.65;;;12.30;73.00;;;;;;5009073;28;20034;-79
2022/03/22 03:26:58;;;;;;;14.40;11.73;;;12.20;73.00;;;;;;4995053;28;20108;-80
2022/03/22 03:29:25;;;;;;;14.13;11.60;;;12.20;73.00;;;;;;5006236;28;20037;-80
2022/03/22 03:31:51;;;;;;;14.35;11.90;;;12.20;73.10;;;;;;5005111;28;20477;-80
2022/03/22 03:34:19;;;;;;;15.13;12.10;;;12.20;73.10;;;;;;5014891;28;20033;-80
2022/03/22 03:36:45;;;;;;;15.32;12.40;;;12.10;73.10;;;;;;4996892;28;20425;-80
2022/03/22 03:39:11;;;;;;;14.18;11.30;;;12.10;73.10;;;;;;5003595;28;20029;-80
2022/03/22 03:41:53;;;;;;;14.13;11.45;;;12.10;73.10;;;;;;4998556;28;20470;-80
2022/03/22 03:47:14;;;;;;;13.75;11.25;;;12.10;73.20;;;;;;4998576;28;20427;-78
2022/03/22 03:49:48;;;;;;;13.85;10.90;;;12.00;73.20;;;;;;5008018;28;20113;-79
2022/03/22 03:52:16;;;;;;;13.07;11.03;;;12.00;73.30;;;;;;5011344;28;20393;-80
2022/03/22 03:54:43;;;;;;;15.32;11.27;;;12.00;73.90;;;;;;4995192;28;20288;-79
2022/03/22 03:57:10;;;;;;;15.85;12.23;;;12.00;73.30;;;;;;5011606;28;20029;-79
2022/03/22 03:59:37;;;;;;;14.27;10.95;;;11.90;73.30;;;;;;5007964;28;20033;-80
2022/03/22 04:02:04;;;;;;;14.55;11.35;;;11.90;73.30;;;;;;5022232;28;20084;-79
2022/03/22 04:04:30;;;;;;;13.57;10.75;;;11.90;73.40;;;;;;4989461;28;20105;-80
2022/03/22 04:06:56;;;;;;;15.45;11.80;;;11.90;73.40;;;;;;5011933;28;20033;-79
2022/03/22 04:09:22;;;;;;;14.80;10.77;;;11.90;73.40;;;;;;5000940;28;20030;-79
2022/03/22 04:11:48;;;;;;;14.30;11.75;;;11.80;73.30;;;;;;4997108;28;20029;-79
2022/03/22 04:14:15;;;;;;;17.13;12.15;;;11.80;73.40;;;;;;4992317;28;20037;-80
2022/03/22 04:16:41;;;;;;;14.73;11.55;;;11.80;73.40;;;;;;4977136;28;20025;-79
2022/03/22 04:19:08;;;;;;;13.23;10.32;;;11.80;73.40;;;;;;5009640;28;20414;-78
2022/03/22 04:21:38;;;;;;;14.90;11.82;;;11.80;73.40;;;;;;5011266;28;20045;-80
2022/03/22 04:24:09;;;;;;;13.52;11.40;;;11.70;73.40;;;;;;5007425;28;20026;-79
2022/03/22 04:26:40;;;;;;;15.88;11.88;;;11.70;73.50;;;;;;4994220;28;20034;-80
2022/03/22 04:34:38;;;;;;;14.60;11.75;;;11.60;73.40;;;;;;5002854;28;20026;-79
2022/03/22 04:37:06;;;;;;;13.38;10.90;;;11.60;73.40;;;;;;5009684;28;20486;-80
2022/03/22 04:39:33;;;;;;;14.63;12.05;;;11.60;73.50;;;;;;5005318;28;20052;-80
2022/03/22 04:42:00;;;;;;;14.48;11.52;;;11.60;73.40;;;;;;4980888;28;20022;-79
2022/03/22 04:44:28;;;;;;;13.98;11.20;;;11.50;73.30;;;;;;5017440;28;20042;-79
2022/03/22 04:46:56;;;;;;;13.75;10.38;;;11.50;73.40;;;;;;4997940;28;20371;-79
2022/03/22 04:49:22;;;;;;;14.70;10.98;;;11.50;73.40;;;;;;4980949;28;20025;-79
2022/03/22 04:57:18;;;;;;;13.32;11.13;;;11.40;73.30;;;;;;5022770;28;20174;-80
2022/03/22 04:59:44;;;;;;;13.48;10.60;;;11.40;73.30;;;;;;4988179;28;20716;-80
2022/03/22 05:02:10;;;;;;;13.73;10.85;;;11.40;73.40;;;;;;4993318;28;20029;-79
2022/03/22 05:04:37;;;;;;;13.55;10.52;;;11.30;74.10;;;;;;4997223;28;20377;-79
2022/03/22 05:07:03;;;;;;;13.15;10.48;;;11.30;73.50;;;;;;5011966;28;20084;-79
2022/03/22 05:09:29;;;;;;;14.07;10.82;;;11.30;73.50;;;;;;4999034;28;20133;-80
2022/03/22 05:11:59;;;;;;;13.50;10.88;;;11.30;73.50;;;;;;4995956;28;20029;-79
2022/03/22 05:14:26;;;;;;;13.05;10.20;;;11.20;73.40;;;;;;4989278;28;20029;-79
2022/03/22 05:16:55;;;;;;;13.68;10.50;;;11.20;73.50;;;;;;4986586;28;20025;-80
2022/03/22 05:19:21;;;;;;;14.00;10.27;;;11.20;73.50;;;;;;4996680;28;20060;-80
2022/03/22 05:21:48;;;;;;;13.32;10.68;;;11.20;73.50;;;;;;4990500;28;20033;-79
2022/03/22 05:24:13;;;;;;;12.60;10.27;;;11.20;73.60;;;;;;5005749;28;20499;-78
2022/03/22 05:26:40;;;;;;;12.25;9.57;;;11.20;73.50;;;;;;5011995;28;20063;-77
2022/03/22 05:29:06;;;;;;;13.32;11.10;;;11.10;73.50;;;;;;5007908;28;20680;-79
2022/03/22 05:31:34;;;;;;;13.05;10.15;;;11.10;73.50;;;;;;4996329;28;20132;-76
2022/03/22 05:34:01;;;;;;;11.55;9.57;;;11.10;73.50;;;;;;5005080;28;20449;-78
2022/03/22 05:36:27;;;;;;;13.23;10.60;;;11.10;73.60;;;;;;5029235;28;20028;-78
2022/03/22 05:38:53;;;;;;;13.20;10.82;;;11.00;73.60;;;;;;4996649;28;20668;-77
2022/03/22 05:41:20;;;;;;;12.70;9.77;;;11.00;73.60;;;;;;4998744;28;20041;-78
2022/03/22 05:43:47;;;;;;;12.43;10.07;;;11.00;73.60;;;;;;4974196;28;20108;-77
2022/03/22 05:46:17;;;;;;;13.70;11.00;;;11.00;73.70;;;;;;5007333;28;20112;-78
2022/03/22 05:48:44;;;;;;;12.35;9.27;;;11.00;73.60;;;;;;5015300;28;20022;-78
2022/03/22 05:51:10;;;;;;;11.95;9.68;;;11.00;73.60;;;;;;5032692;28;20033;-76
2022/03/22 05:53:36;;;;;;;12.02;9.25;;;11.00;73.60;;;;;;5015011;28;20057;-78
2022/03/22 05:56:03;;;;;;;13.23;10.32;;;10.90;73.60;;;;;;5014113;28;20021;-77
2022/03/22 05:58:29;;;;;;;12.80;10.32;;;10.90;73.60;;;;;;5031235;28;20421;-77
2022/03/22 06:00:55;;;;;;;12.13;10.00;;;10.90;73.60;;;;;;5009018;28;20040;-77
2022/03/22 06:03:21;;;;;;;12.93;9.77;;;10.90;73.60;;;;;;5011913;28;20026;-78
2022/03/22 06:05:49;;;;;;;12.30;10.05;;;10.90;73.60;;;;;;5007809;28;21673;-77
2022/03/22 06:08:15;;;;;;;12.40;9.82;;;10.90;73.70;;;;;;5014618;28;20025;-77
2022/03/22 06:10:41;;;;;;;12.45;9.75;;;10.90;73.60;;;;;;5015037;28;20478;-77
2022/03/22 06:13:07;;;;;;;12.35;9.32;;;10.90;73.60;;;;;;5013360;28;20033;-77
2022/03/22 06:15:34;;;;;;;13.02;9.60;;;10.90;73.60;;;;;;5015081;28;20212;-78
2022/03/22 06:18:09;;;;;;;12.18;9.13;;;10.90;73.60;;;;;;5005476;28;20029;-78
2022/03/22 06:20:38;;;;;;;13.10;9.90;;;10.90;73.60;;;;;;5004207;28;20026;-77
2022/03/22 06:23:06;;;;;;;12.52;9.55;;;10.90;73.60;;;;;;5034234;28;20222;-76
2022/03/22 06:25:33;;;;;;;11.57;9.13;;;10.80;73.60;;;;;;4999003;28;20102;-78
2022/03/22 06:27:59;;;;;;;13.60;9.93;;;10.90;73.60;;;;;;5012671;28;20022;-76
2022/03/22 06:30:26;;;;;;;11.73;9.32;;;10.90;73.60;;;;;;5003842;28;20513;-77
2022/03/22 06:32:54;;;;;;;11.45;9.30;;;10.80;73.60;;;;;;5022726;28;20065;-78
2022/03/22 06:35:26;;;;;;;11.18;8.98;;;10.80;73.60;;;;;;5015077;28;20029;-75
2022/03/22 06:37:53;;;;;;;14.10;10.13;;;10.80;74.20;;;;;;5014646;28;20079;-79
2022/03/22 06:40:20;;;;;;;13.65;10.73;;;10.80;73.60;;;;;;5016624;28;20033;-77
2022/03/22 06:42:48;;;;;;;12.85;9.75;;;10.80;73.60;;;;;;5014796;28;20095;-77
2022/03/22 06:45:14;;;;;;;11.30;9.10;;;10.80;73.60;;;;;;4998814;28;20354;-76
2022/03/22 06:47:40;;;;;;;11.25;9.07;;;10.90;73.60;;;;;;5032491;28;20029;-76
2022/03/22 06:50:08;;;;;;;13.32;10.18;;;10.80;73.60;;;;;;4996550;28;20046;-76
2022/03/22 06:52:35;;;;;;;12.57;10.30;;;10.80;73.60;;;;;;5014682;28;20127;-76
2022/03/22 06:55:03;;;;;;;13.57;10.10;;;10.80;73.60;;;;;;4998103;28;20026;-76
2022/03/22 06:57:31;;;;;;;12.68;9.32;;;10.80;73.60;;;;;;5014996;28;20022;-77
2022/03/22 06:59:59;;;;;;;13.55;9.80;;;10.80;73.60;;;;;;5014770;28;20030;-76
2022/03/22 07:02:26;;;;;;;11.93;9.02;;;10.80;73.60;;;;;;5032632;28;20024;-78
2022/03/22 07:04:52;;;;;;;11.52;9.43;;;10.90;73.70;;;;;;5014422;28;20056;-77
2022/03/22 07:07:19;;;;;;;13.45;9.75;;;10.90;73.70;;;;;;4998040;28;20034;-76
2022/03/22 07:09:45;;;;;;;12.63;9.93;;;10.90;73.70;;;;;;5013892;28;20045;-77
2022/03/22 07:12:13;;;;;;;12.13;10.25;;;10.80;73.70;;;;;;5012244;28;20050;-77
2022/03/22 07:14:40;;;;;;;12.68;9.93;;;10.90;73.80;;;;;;5014455;28;20045;-77
2022/03/22 07:17:08;;;;;;;14.15;10.55;;;10.90;73.70;;;;;;5008229;28;20018;-77
2022/03/22 07:19:35;;;;;;;12.95;10.18;;;10.90;73.80;;;;;;4996059;28;20129;-77
2022/03/22 07:22:01;;;;;;;12.05;9.90;;;10.90;73.80;;;;;;5014066;28;20435;-77
2022/03/22 07:24:27;;;;;;;13.05;10.32;;;10.90;73.80;;;;;;5014515;28;20025;-77
2022/03/22 07:26:54;;;;;;;12.25;10.15;;;10.90;73.80;;;;;;4997766;28;20434;-77
2022/03/22 07:29:20;;;;;;;12.50;9.43;;;10.90;73.80;;;;;;4982118;28;20033;-75
2022/03/22 07:31:46;;;;;;;13.02;9.90;;;10.90;73.80;;;;;;4979180;28;20029;-77
2022/03/22 07:34:17;;;;;;;13.02;10.75;;;11.00;73.80;;;;;;5014337;28;20010;-77
2022/03/22 07:36:46;;;;;;;12.45;9.73;;;11.00;73.80;;;;;;5014381;28;20033;-78
2022/03/22 07:39:13;;;;;;;14.25;10.70;;;11.00;73.80;;;;;;4998449;28;20029;-76
2022/03/22 07:41:43;;;;;;;12.77;10.18;;;11.00;73.80;;;;;;4994743;28;20033;-77
2022/03/22 07:44:13;;;;;;;13.68;10.63;;;11.10;73.80;;;;;;4975342;28;20050;-76
2022/03/22 07:46:43;;;;;;;12.77;10.48;;;11.10;73.80;;;;;;4978054;28;20041;-76
2022/03/22 07:54:46;;;;;;;12.05;9.50;;;11.10;73.70;;;;;;4973900;28;20093;-76
2022/03/22 07:57:12;;;;;;;13.75;10.07;;;11.20;73.80;;;;;;4972226;28;20388;-77
2022/03/22 07:59:38;;;;;;;12.52;9.93;;;11.20;73.90;;;;;;4991998;28;20458;-77
2022/03/22 08:02:04;;;;;;;12.95;10.48;;;11.20;73.80;;;;;;4978025;28;20026;-78
2022/03/22 08:04:30;;;;;;;13.13;10.52;;;11.20;73.80;;;;;;4974947;28;20379;-77
2022/03/22 08:06:56;;;;;;;13.80;10.70;;;11.30;73.90;;;;;;4984665;28;20031;-78
2022/03/22 08:09:22;;;;;;;13.05;10.35;;;11.30;73.80;;;;;;4979741;28;20653;-77
2022/03/22 08:11:50;;;;;;;12.50;9.90;;;11.30;73.80;;;;;;4990766;28;20034;-77
2022/03/22 08:14:15;;;;;;;14.02;11.07;;;11.30;73.80;;;;;;4990026;28;20510;-77
2022/03/22 08:16:42;;;;;;;11.88;9.43;;;11.40;74.50;;;;;;4990864;28;20042;-77
2022/03/22 08:19:08;;;;;;;13.43;10.93;;;11.30;73.80;;;;;;4987681;28;20039;-77
2022/03/22 08:21:34;;;;;;;14.88;11.10;;;11.40;73.80;;;;;;4956925;28;20081;-76
2022/03/22 08:24:00;;;;;;;13.23;10.10;;;11.40;73.80;;;;;;4990163;28;20037;-78
2022/03/22 08:26:27;;;;;;;13.00;10.63;;;11.40;73.80;;;;;;4957937;28;20042;-76
2022/03/22 08:28:54;;;;;;;13.70;10.70;;;11.40;73.80;;;;;;4989757;28;20534;-77
2022/03/22 08:31:20;;;;;;;15.48;10.68;;;11.50;73.80;;;;;;4989554;28;20471;-76
2022/03/22 08:33:46;;;;;;;12.45;9.68;;;11.50;73.80;;;;;;4989706;28;20100;-76
2022/03/22 08:36:12;;;;;;;13.32;10.35;;;11.50;73.80;;;;;;4975972;28;20468;-77
2022/03/22 08:38:38;;;;;;;12.93;10.60;;;11.60;73.80;;;;;;4994256;28;20045;-78
2022/03/22 08:41:03;;;;;;;14.93;11.73;;;11.60;73.80;;;;;;4964950;28;20034;-78
2022/03/22 08:43:30;;;;;;;13.98;11.32;;;11.60;73.80;;;;;;4986480;28;20058;-79
2022/03/22 08:45:56;;;;;;;12.98;10.15;;;11.60;73.80;;;;;;4978703;28;20045;-80
2022/03/22 08:48:22;;;;;;;14.93;11.43;;;11.70;73.90;;;;;;4990813;28;20117;-78
2022/03/22 08:50:50;;;;;;;14.48;11.20;;;11.70;73.90;;;;;;4991577;28;20031;-79
2022/03/22 08:53:17;;;;;;;14.23;11.15;;;11.70;73.80;;;;;;5013239;28;20030;-79
2022/03/22 08:55:44;;;;;;;14.82;10.52;;;11.70;73.80;;;;;;5010599;28;20025;-78
2022/03/22 08:58:10;;;;;;;15.38;10.70;;;11.80;73.90;;;;;;5001843;28;20482;-78
2022/03/22 09:00:37;;;;;;;14.68;11.25;;;11.80;73.90;;;;;;4977780;28;20050;-79
2022/03/22 09:03:06;;;;;;;13.75;10.48;;;11.90;73.90;;;;;;5009716;28;20038;-79
2022/03/22 09:08:17;;;;;;;14.13;10.68;;;11.90;73.80;;;;;;5009276;28;20425;-79
2022/03/22 09:10:46;;;;;;;13.27;10.85;;;12.00;73.80;;;;;;5009402;28;20030;-79
2022/03/22 09:13:12;;;;;;;13.45;10.90;;;12.00;73.80;;;;;;5017679;28;20105;-78
2022/03/22 09:15:39;;;;;;;13.57;10.73;;;12.10;73.90;;;;;;4977018;28;20466;-78
2022/03/22 09:18:18;;;;;;;14.38;10.80;;;12.10;73.80;;;;;;4993008;28;20395;-79
2022/03/22 09:20:46;;;;;;;14.38;10.65;;;12.20;73.90;;;;;;4992585;28;20041;-79
2022/03/22 09:23:12;;;;;;;13.93;10.50;;;12.20;73.80;;;;;;5009446;28;20459;-79
2022/03/22 09:25:43;;;;;;;14.73;10.90;;;12.30;73.80;;;;;;4992761;28;20037;-79
2022/03/22 09:28:10;;;;;;;14.13;10.95;;;12.40;73.80;;;;;;5013411;28;20112;-79
2022/03/22 09:30:38;;;;;;;11.75;10.13;;;12.40;73.80;;;;;;4997225;28;20040;-81
2022/03/22 09:33:05;;;;;;;13.32;10.82;;;12.50;73.80;;;;;;5009490;28;20069;-79
2022/03/22 09:35:31;;;;;;;13.05;10.32;;;12.50;73.80;;;;;;4992925;28;20030;-78
2022/03/22 09:37:59;;;;;;;13.75;10.38;;;12.60;73.80;;;;;;4999178;28;20382;-77
2022/03/22 09:40:26;;;;;;;14.70;10.98;;;12.70;73.80;;;;;;4992462;28;20375;-78
2022/03/22 09:42:54;;;;;;;12.63;10.00;;;12.70;73.80;;;;;;4989359;28;20391;-79
2022/03/22 09:45:27;;;;;;;13.20;10.60;;;12.80;73.80;;;;;;4973530;28;20563;-78
2022/03/22 09:47:54;;;;;;;13.32;10.60;;;12.90;73.80;;;;;;5006520;28;20038;-77
2022/03/22 09:51:44;;;;;;;14.30;11.07;;;13.00;73.80;;;;;;4962690;28;20042;-78
2022/03/22 09:53:07;;;;;;;13.85;10.68;;;13.10;73.80;;;;;;4987759;28;20026;-78
2022/03/22 09:55:35;;;;;;;13.93;10.85;;;13.10;73.80;;;;;;5005626;28;20022;-79
2022/03/22 09:58:01;;;;;;;13.23;10.80;;;13.20;73.80;;;;;;4991901;28;20097;-79
2022/03/22 10:00:27;;;;;;;14.15;10.65;;;13.30;73.90;;;;;;4983761;28;20066;-78
2022/03/22 10:02:53;;;;;;;13.40;11.05;;;13.40;73.90;;;;;;4988701;28;20452;-78
2022/03/22 10:05:23;;;;;;;14.18;11.43;;;13.50;74.00;;;;;;4972670;28;20030;-79
2022/03/22 10:08:07;;;;;;;15.43;11.40;;;13.60;74.10;;;;;;4973256;28;20033;-78
2022/03/22 10:10:34;;;;;;;14.20;11.18;;;13.70;74.20;;;;;;4965094;28;20074;-79
2022/03/22 10:13:02;;;;;;;14.13;11.32;;;13.80;74.10;;;;;;4986574;28;20023;-79
2022/03/22 10:15:34;;;;;;;14.82;11.50;;;13.90;74.10;;;;;;4987905;28;20027;-78
2022/03/22 10:18:04;;;;;;;14.68;11.00;;;13.90;74.10;;;;;;4986334;28;20117;-79
2022/03/22 10:20:31;;;;;;;13.45;11.75;;;14.00;74.10;;;;;;5009205;28;20084;-79
2022/03/22 10:22:58;;;;;;;12.68;10.90;;;14.10;74.10;;;;;;4976871;28;20054;-79
2022/03/22 10:25:25;;;;;;;14.60;11.98;;;14.20;74.20;;;;;;4993977;28;20537;-78
2022/03/22 10:27:55;;;;;;;15.32;12.45;;;14.30;74.20;;;;;;4976231;28;20129;-79
2022/03/22 10:30:22;;;;;;;14.68;11.82;;;14.40;74.30;;;;;;4993520;28;20159;-78
2022/03/22 10:32:51;;;;;;;14.10;11.60;;;14.50;74.30;;;;;;4992679;28;20505;-78
2022/03/22 10:35:34;;;;;;;15.15;12.35;;;14.60;74.30;;;;;;4976372;28;20038;-78
2022/03/22 10:38:08;;;;;;;14.77;11.70;;;14.70;74.40;;;;;;4975974;28;20027;-79
2022/03/22 10:40:40;;;;;;;13.73;11.40;;;14.80;74.30;;;;;;4989287;28;20027;-79
2022/03/22 10:43:30;;;;;;;13.68;11.13;;;14.90;74.30;;;;;;4985717;28;20158;-78
2022/03/22 10:46:01;;;;;;;13.63;10.75;;;15.00;74.60;;;;;;4943398;28;20034;-79
2022/03/22 10:48:34;;;;;;;14.32;10.85;;;15.10;74.50;;;;;;4988091;28;20380;-79
2022/03/22 10:51:01;;;;;;;12.93;10.82;;;15.20;74.60;;;;;;4981030;28;20042;-80
2022/03/22 10:53:29;;;;;;;13.35;11.02;;;15.40;74.70;;;;;;4984321;28;20022;-80
2022/03/22 10:55:57;;;;;;;12.73;10.98;;;15.40;74.60;;;;;;4994159;28;20076;-79
2022/03/22 10:58:26;;;;;;;13.95;11.57;;;15.50;74.60;;;;;;4975001;28;20046;-80
2022/03/22 11:00:53;;;;;;;14.95;12.40;;;15.60;74.80;;;;;;4976081;28;20031;-79
2022/03/22 11:03:20;;;;;;;13.55;11.32;;;15.80;74.80;;;;;;4975826;28;20026;-79
2022/03/22 11:05:50;;;;;;;12.88;11.10;;;15.80;74.70;;;;;;4991903;28;20006;-79
2022/03/22 11:08:19;;;;;;;13.63;11.13;;;16.00;74.70;;;;;;4991699;28;20037;-80
2022/03/22 11:10:46;;;;;;;14.43;11.45;;;16.10;74.80;;;;;;4992982;28;20034;-80
2022/03/22 11:13:12;;;;;;;13.73;11.23;;;16.20;74.80;;;;;;4956358;28;20038;-79
2022/03/22 11:15:41;;;;;;;12.90;10.88;;;16.30;74.80;;;;;;4991934;28;20033;-79
2022/03/22 11:18:08;;;;;;;14.18;10.93;;;16.30;74.80;;;;;;4992093;28;20494;-79
2022/03/22 11:20:34;;;;;;;14.98;11.20;;;16.40;74.80;;;;;;4943058;28;20125;-79
2022/03/22 11:23:00;;;;;;;14.63;11.23;;;16.50;74.80;;;;;;4974885;28;20206;-74
2022/03/22 11:25:34;;;;;;;12.95;10.85;;;16.60;74.90;;;;;;4995591;28;20030;-76
2022/03/22 11:28:09;;;;;;;12.88;10.68;;;16.70;74.80;;;;;;4988141;28;20462;-75
2022/03/22 11:30:36;;;;;;;;;;;16.90;75.00;;;;;;4992731;28;20043;-74
2022/03/22 11:35:57;;;;;;;11.88;10.20;;;17.00;74.60;;;;;;4984085;28;20035;-76
2022/03/22 11:38:42;;;;;;;12.43;10.25;;;17.10;74.90;;;;;;4974950;28;20089;-77
2022/03/22 11:44:38;;;;;;;12.32;9.95;;;17.20;75.10;;;;;;5010365;28;20038;-77
2022/03/22 11:47:12;;;;;;;12.75;10.27;;;17.40;75.30;;;;;;5009332;28;20474;-77
2022/03/22 11:49:55;;;;;;;13.32;10.38;;;17.50;75.30;;;;;;5005333;28;20054;-77
2022/03/22 11:52:22;;;;;;;13.35;9.90;;;17.50;75.40;;;;;;5012121;28;20052;-78
2022/03/22 11:55:00;;;;;;;13.30;11.00;;;17.70;75.40;;;;;;5010418;28;20478;-78
2022/03/22 11:57:27;;;;;;;12.38;10.13;;;17.70;75.60;;;;;;5003617;28;20021;-75
2022/03/22 11:59:54;;;;;;;13.65;11.23;;;17.80;75.40;;;;;;5011044;28;20447;-78
2022/03/22 12:02:34;;;;;;;13.80;10.95;;;17.80;74.60;;;;;;5010333;28;20033;-78
2022/03/22 12:05:02;;;;;;;14.80;11.48;;;17.90;73.10;;;;;;4993600;28;20026;-79
2022/03/22 12:07:28;;;;;;;14.70;10.82;;;18.00;72.40;;;;;;4993670;28;20113;-77
2022/03/22 12:10:14;;;;;;;19.65;12.57;;;18.10;71.20;;;;;;5009627;28;20188;-78
2022/03/22 12:12:48;;;;;;;13.85;11.27;;;18.20;70.20;;;;;;4977119;28;20044;-80
2022/03/22 12:15:16;;;;;;;15.00;12.25;;;18.20;69.40;;;;;;4997363;28;20038;-77
2022/03/22 12:17:43;;;;;;;15.02;11.60;;;18.30;68.50;;;;;;4993833;28;20030;-80
2022/03/22 12:20:14;;;;;;;15.00;11.68;;;18.40;67.80;;;;;;5010314;28;20817;-77
2022/03/22 12:22:41;;;;;;;14.95;11.10;;;18.40;67.10;;;;;;5011690;28;20053;-78
2022/03/22 12:25:10;;;;;;;16.90;11.63;;;18.50;66.70;;;;;;5011415;28;20026;-78
2022/03/22 12:27:35;;;;;;;14.15;11.25;;;18.50;66.10;;;;;;4993227;28;20037;-82
2022/03/22 12:30:01;;;;;;;15.70;12.38;;;18.60;66.10;;;;;;5009661;28;20052;-77
2022/03/22 12:32:27;;;;;;;21.15;11.70;;;18.60;65.70;;;;;;5004419;28;20482;-76
2022/03/22 12:34:54;;;;;;;16.95;11.20;;;18.70;65.20;;;;;;4991926;28;20034;-77
2022/03/22 12:37:20;;;;;;;13.23;10.75;;;18.80;64.80;;;;;;5009269;28;20042;-77
2022/03/22 12:39:47;;;;;;;14.20;10.88;;;18.80;64.30;;;;;;5008833;28;20120;-76
2022/03/22 12:42:15;;;;;;;12.70;10.27;;;18.80;64.00;;;;;;5004301;28;20034;-75
2022/03/22 12:44:41;;;;;;;13.77;10.77;;;18.90;63.50;;;;;;5029808;28;20057;-77
2022/03/22 12:47:08;;;;;;;15.10;10.80;;;19.00;63.10;;;;;;4996180;28;20075;-77
2022/03/22 12:49:39;;;;;;;12.82;10.23;;;19.00;63.40;;;;;;5003052;28;20102;-78
2022/03/22 12:52:07;;;;;;;13.13;9.52;;;19.10;62.60;;;;;;4988114;28;20072;-75
2022/03/22 12:54:35;;;;;;;12.60;9.77;;;19.10;62.20;;;;;;5029613;28;20399;-76
2022/03/22 12:57:05;;;;;;;11.70;8.88;;;19.20;61.90;;;;;;5030023;28;20160;-76
2022/03/22 12:59:30;;;;;;;12.63;9.68;;;19.20;61.60;;;;;;5007012;28;20043;-75
2022/03/22 13:01:58;;;;;;;13.65;9.35;;;19.20;61.30;;;;;;5030609;28;20117;-76
2022/03/22 13:04:26;;;;;;;11.90;8.82;;;19.30;61.10;;;;;;4988402;28;20029;-76
2022/03/22 13:07:00;;;;;;;12.50;8.65;;;19.30;60.90;;;;;;5007646;28;20475;-76